Time;durP1;ratioP1;P1;durP2;ratioP2;P2;SDS_P1;SDS_P2;PMS_P1;PMS_P2;Temp;Humidity;BMP_temperature;BMP_pressure;BME280_temperature;BME280_humidity;BME280_pressure;Samples;Min_cycle;Max_cycle;Signal;HPM_P1;HPM_P2
2022/01/09 00:00:44;;;;;;;29.00;17.17;;;5.00;99.90;;;;;;4949087;28;20034;-75
2022/01/09 00:03:11;;;;;;;18.85;12.52;;;5.00;99.90;;;;;;4929997;28;20039;-75
2022/01/09 00:05:38;;;;;;;16.50;10.18;;;5.00;99.90;;;;;;4951249;28;20027;-74
2022/01/09 00:08:05;;;;;;;10.18;6.80;;;5.00;99.90;;;;;;4952310;28;20031;-75
2022/01/09 00:10:32;;;;;;;7.45;5.45;;;5.00;99.90;;;;;;4947354;28;20410;-75
2022/01/09 00:12:59;;;;;;;5.78;4.75;;;5.10;99.90;;;;;;4948591;28;20038;-75
2022/01/09 00:15:26;;;;;;;5.30;4.57;;;5.10;99.90;;;;;;4947576;28;20035;-75
2022/01/09 00:17:52;;;;;;;5.10;4.22;;;5.10;99.90;;;;;;4947353;28;20038;-76
2022/01/09 00:20:19;;;;;;;5.05;4.18;;;5.10;99.90;;;;;;4946491;28;20031;-74
2022/01/09 00:22:50;;;;;;;5.32;3.80;;;5.10;99.90;;;;;;4929801;28;20024;-73
2022/01/09 00:25:20;;;;;;;5.00;3.15;;;5.10;99.90;;;;;;4917232;28;20035;-74
2022/01/09 00:27:47;;;;;;;3.90;3.08;;;5.10;99.90;;;;;;4946959;28;20039;-74
2022/01/09 00:30:15;;;;;;;4.05;2.95;;;5.10;99.90;;;;;;4949247;28;20039;-75
2022/01/09 00:32:42;;;;;;;4.18;3.78;;;5.20;99.90;;;;;;4949888;28;20039;-74
2022/01/09 00:35:10;;;;;;;3.92;3.47;;;5.10;99.90;;;;;;4933820;28;20587;-74
2022/01/09 00:37:36;;;;;;;3.67;3.10;;;5.10;99.90;;;;;;4954638;28;20055;-75
2022/01/09 00:40:05;;;;;;;3.78;3.38;;;5.10;99.90;;;;;;4966103;28;20030;-76
2022/01/09 00:42:31;;;;;;;6.45;4.05;;;5.20;99.90;;;;;;4929492;28;20035;-76
2022/01/09 00:44:58;;;;;;;5.07;3.58;;;5.20;99.90;;;;;;4948011;28;20039;-76
2022/01/09 00:47:24;;;;;;;4.82;4.22;;;5.20;99.90;;;;;;4961890;28;20478;-76
2022/01/09 00:49:51;;;;;;;4.57;3.88;;;5.20;99.90;;;;;;4945923;28;20026;-75
2022/01/09 00:52:18;;;;;;;7.38;4.18;;;5.20;99.90;;;;;;4946726;28;20031;-75
2022/01/09 00:54:44;;;;;;;7.95;4.47;;;5.20;99.90;;;;;;4950066;28;21376;-74
2022/01/09 00:57:11;;;;;;;4.47;3.85;;;5.20;99.90;;;;;;4950743;28;20035;-76
2022/01/09 00:59:37;;;;;;;6.25;4.82;;;5.20;99.90;;;;;;4950863;28;20035;-76
2022/01/09 01:02:04;;;;;;;6.75;5.82;;;5.20;99.90;;;;;;4948721;28;20034;-73
2022/01/09 01:04:30;;;;;;;7.22;5.60;;;5.20;99.90;;;;;;4928885;28;20403;-73
2022/01/09 01:06:57;;;;;;;6.63;5.93;;;5.20;99.90;;;;;;4949629;28;20026;-73
2022/01/09 01:09:24;;;;;;;5.60;4.82;;;5.20;99.90;;;;;;4947311;28;20030;-73
2022/01/09 01:11:51;;;;;;;6.78;5.45;;;5.20;99.90;;;;;;4945988;28;20034;-73
2022/01/09 01:14:22;;;;;;;6.53;4.90;;;5.30;99.90;;;;;;4933296;28;20034;-73
2022/01/09 01:16:50;;;;;;;5.32;4.32;;;5.20;99.90;;;;;;4948004;28;20046;-73
2022/01/09 01:19:16;;;;;;;5.30;4.75;;;5.20;99.90;;;;;;4933038;28;20038;-76
2022/01/09 01:21:43;;;;;;;5.15;3.88;;;5.20;99.90;;;;;;4946788;28;20402;-76
2022/01/09 01:24:09;;;;;;;6.65;4.40;;;5.20;99.90;;;;;;4949140;28;20042;-75
2022/01/09 01:26:36;;;;;;;6.07;5.47;;;5.20;99.90;;;;;;4950740;28;20382;-75
2022/01/09 01:29:02;;;;;;;9.93;7.10;;;5.20;99.90;;;;;;4951151;28;20497;-76
2022/01/09 01:31:29;;;;;;;7.43;6.05;;;5.20;99.90;;;;;;4949221;28;20442;-76
2022/01/09 01:33:55;;;;;;;5.60;4.53;;;5.20;99.90;;;;;;4950061;28;20761;-76
2022/01/09 01:36:22;;;;;;;5.32;4.78;;;5.20;99.90;;;;;;4949993;28;20505;-76
2022/01/09 01:38:49;;;;;;;6.63;4.18;;;5.30;99.90;;;;;;4946145;28;20478;-77
2022/01/09 01:41:15;;;;;;;7.32;5.97;;;5.30;99.90;;;;;;4945643;28;20378;-77
2022/01/09 01:43:42;;;;;;;6.68;4.15;;;5.30;99.90;;;;;;4947443;28;20047;-76
2022/01/09 01:46:08;;;;;;;6.68;4.30;;;5.30;99.90;;;;;;4946674;28;20472;-76
2022/01/09 01:48:35;;;;;;;6.75;2.83;;;5.30;99.90;;;;;;4914132;28;20406;-76
2022/01/09 01:51:01;;;;;;;8.82;3.95;;;5.40;99.90;;;;;;4942542;28;20102;-77
2022/01/09 01:53:28;;;;;;;10.15;2.95;;;5.40;99.90;;;;;;4943324;28;20039;-77
2022/01/09 01:55:56;;;;;;;11.70;1.45;;;5.40;99.90;;;;;;4947235;28;20030;-76
2022/01/09 01:58:26;;;;;;;11.60;1.00;;;5.40;99.90;;;;;;4934836;28;20399;-76
2022/01/09 02:00:53;;;;;;;19.02;2.03;;;5.40;99.90;;;;;;4945899;28;20011;-76
2022/01/09 02:03:19;;;;;;;22.95;2.75;;;5.40;99.90;;;;;;4946222;28;20038;-76
2022/01/09 02:05:46;;;;;;;24.52;2.35;;;5.40;99.90;;;;;;4949563;28;20038;-76
2022/01/09 02:08:13;;;;;;;18.55;2.10;;;5.40;99.90;;;;;;4955030;28;20378;-76
2022/01/09 02:10:42;;;;;;;16.30;1.90;;;5.50;99.90;;;;;;4949648;28;20135;-74
2022/01/09 02:13:08;;;;;;;23.33;2.90;;;5.50;99.90;;;;;;4951561;28;20023;-73
2022/01/09 02:15:39;;;;;;;22.98;3.20;;;5.50;99.90;;;;;;4951300;28;20031;-74
2022/01/09 02:18:09;;;;;;;27.95;3.55;;;5.50;99.90;;;;;;4950412;28;20023;-73
2022/01/09 02:20:37;;;;;;;23.05;2.22;;;5.50;99.90;;;;;;4946067;28;20038;-73
2022/01/09 02:23:06;;;;;;;16.92;1.98;;;5.60;99.90;;;;;;4946221;28;20027;-73
2022/01/09 02:25:34;;;;;;;34.75;2.85;;;5.60;99.90;;;;;;4947919;28;20813;-73
2022/01/09 02:28:02;;;;;;;30.80;3.80;;;5.60;99.90;;;;;;4953706;28;20023;-74
2022/01/09 02:30:32;;;;;;;29.52;3.05;;;5.70;99.90;;;;;;4946881;28;20586;-74
2022/01/09 02:33:04;;;;;;;29.27;3.28;;;5.70;99.90;;;;;;4946179;28;20027;-74
2022/01/09 02:35:31;;;;;;;27.25;3.15;;;5.80;99.90;;;;;;4952393;28;20038;-74
2022/01/09 02:37:58;;;;;;;39.38;4.53;;;5.80;99.90;;;;;;4949891;28;20028;-74
2022/01/09 02:40:25;;;;;;;34.40;4.05;;;5.90;99.90;;;;;;4948046;28;20020;-76
2022/01/09 02:42:53;;;;;;;42.53;4.40;;;5.90;99.90;;;;;;4946848;28;20035;-76
2022/01/09 02:45:22;;;;;;;30.83;3.40;;;5.90;99.90;;;;;;4946916;28;20035;-76
2022/01/09 02:47:50;;;;;;;37.22;4.25;;;6.00;99.90;;;;;;4948255;28;20050;-77
2022/01/09 02:52:52;;;;;;;42.88;5.50;;;6.00;99.90;;;;;;4949858;28;20026;-77
2022/01/09 02:55:19;;;;;;;40.20;3.70;;;6.00;99.90;;;;;;4950964;28;20028;-76
2022/01/09 02:57:48;;;;;;;42.53;4.20;;;6.10;99.90;;;;;;4951576;28;20035;-76
2022/01/09 03:00:21;;;;;;;44.58;5.45;;;6.10;99.90;;;;;;4946020;28;20350;-77
2022/01/09 03:02:48;;;;;;;40.75;4.63;;;6.10;99.90;;;;;;4945251;28;20375;-77
2022/01/09 03:05:14;;;;;;;35.47;4.60;;;6.10;99.90;;;;;;4931766;28;20055;-76
2022/01/09 03:07:43;;;;;;;41.03;3.72;;;6.10;99.90;;;;;;4932840;28;20046;-76
2022/01/09 03:10:11;;;;;;;36.67;3.90;;;6.10;99.90;;;;;;4948493;28;20027;-76
2022/01/09 03:12:38;;;;;;;37.35;3.55;;;6.10;99.90;;;;;;4928979;28;20030;-76
2022/01/09 03:15:06;;;;;;;39.40;3.47;;;6.10;99.90;;;;;;4948779;28;20049;-76
2022/01/09 03:17:33;;;;;;;37.78;3.38;;;6.10;99.90;;;;;;4949399;28;20031;-76
2022/01/09 03:20:00;;;;;;;30.58;3.40;;;6.10;99.90;;;;;;4944803;28;20500;-76
2022/01/09 03:22:26;;;;;;;44.13;5.00;;;6.10;99.90;;;;;;4945662;28;20498;-77
2022/01/09 03:24:53;;;;;;;32.92;3.80;;;6.10;99.90;;;;;;4947784;28;20038;-75
2022/01/09 03:27:19;;;;;;;30.55;2.95;;;6.10;99.90;;;;;;4951106;28;20501;-76
2022/01/09 03:29:45;;;;;;;49.83;4.57;;;6.00;99.90;;;;;;4944954;28;20381;-76
2022/01/09 03:32:12;;;;;;;37.83;3.80;;;6.00;99.90;;;;;;4941553;28;20035;-76
2022/01/09 03:34:38;;;;;;;36.03;3.95;;;6.00;99.90;;;;;;4948265;28;20493;-76
2022/01/09 03:37:06;;;;;;;39.72;4.38;;;6.00;99.90;;;;;;4931293;28;20026;-76
2022/01/09 03:39:32;;;;;;;34.75;3.85;;;6.00;99.90;;;;;;4945267;28;20849;-77
2022/01/09 03:41:59;;;;;;;37.63;4.40;;;6.00;99.90;;;;;;4946142;28;20414;-76
2022/01/09 03:44:27;;;;;;;28.83;3.50;;;6.00;99.90;;;;;;4948120;28;20453;-76
2022/01/09 03:46:55;;;;;;;41.78;4.35;;;5.90;99.90;;;;;;4948465;28;20038;-76
2022/01/09 03:49:22;;;;;;;34.63;3.75;;;5.90;99.90;;;;;;4949773;28;20497;-76
2022/01/09 03:51:53;;;;;;;34.90;4.32;;;5.90;99.90;;;;;;4943655;28;20027;-76
2022/01/09 03:54:21;;;;;;;44.97;4.65;;;5.90;99.90;;;;;;4948237;28;20042;-77
2022/01/09 03:56:49;;;;;;;37.25;3.95;;;5.90;99.90;;;;;;4945087;28;20018;-76
2022/01/09 03:59:16;;;;;;;38.83;4.22;;;5.90;99.90;;;;;;4947532;28;20467;-77
2022/01/09 04:01:43;;;;;;;31.63;3.97;;;6.00;99.90;;;;;;4945463;28;20034;-74
2022/01/09 04:04:10;;;;;;;40.65;3.72;;;5.90;99.90;;;;;;4943411;28;20046;-74
2022/01/09 04:06:39;;;;;;;32.00;3.92;;;5.90;99.90;;;;;;4947537;28;20098;-74
2022/01/09 04:09:17;;;;;;;41.13;3.67;;;5.90;99.90;;;;;;4949575;28;20449;-76
2022/01/09 04:11:45;;;;;;;28.75;3.22;;;5.90;99.90;;;;;;4945000;28;20106;-76
2022/01/09 04:14:12;;;;;;;28.65;3.05;;;5.90;99.90;;;;;;4945463;28;20494;-74
2022/01/09 04:16:38;;;;;;;24.75;2.85;;;5.90;99.90;;;;;;4932563;28;20035;-74
2022/01/09 04:19:05;;;;;;;24.45;3.00;;;5.90;99.90;;;;;;4947709;28;20391;-74
2022/01/09 04:21:33;;;;;;;23.80;2.85;;;5.80;99.90;;;;;;4944087;28;20035;-74
2022/01/09 04:23:59;;;;;;;27.90;2.95;;;5.80;99.90;;;;;;4942492;28;20031;-74
2022/01/09 04:26:25;;;;;;;30.23;2.60;;;5.80;99.90;;;;;;4945919;28;20111;-74
2022/01/09 04:28:52;;;;;;;28.10;2.83;;;5.80;99.90;;;;;;4947819;28;20027;-74
2022/01/09 04:31:18;;;;;;;31.25;3.03;;;5.80;99.90;;;;;;4945078;28;20470;-74
2022/01/09 04:33:45;;;;;;;31.77;3.03;;;5.70;99.90;;;;;;4944630;28;20031;-74
2022/01/09 04:36:11;;;;;;;34.22;2.95;;;5.80;99.90;;;;;;4949789;28;20043;-74
2022/01/09 04:38:38;;;;;;;28.30;2.50;;;5.80;99.90;;;;;;4949055;28;20505;-74
2022/01/09 04:41:04;;;;;;;37.17;3.55;;;5.80;99.90;;;;;;4949700;28;20031;-74
2022/01/09 04:43:30;;;;;;;29.15;2.90;;;5.80;99.90;;;;;;4945574;28;20035;-74
2022/01/09 04:45:57;;;;;;;22.23;2.53;;;5.80;99.90;;;;;;4951162;28;20370;-76
2022/01/09 04:48:23;;;;;;;32.67;2.80;;;5.70;99.90;;;;;;4935764;28;20023;-76
2022/01/09 04:50:52;;;;;;;26.90;2.67;;;5.70;99.90;;;;;;4949124;28;20030;-76
2022/01/09 04:53:18;;;;;;;28.10;3.80;;;5.70;99.90;;;;;;4948092;28;20481;-76
2022/01/09 04:55:50;;;;;;;27.70;2.42;;;5.70;99.90;;;;;;4950566;28;20029;-76
2022/01/09 04:58:17;;;;;;;27.33;2.92;;;5.60;99.90;;;;;;4950506;28;20033;-76
2022/01/09 05:00:44;;;;;;;24.40;3.00;;;5.60;99.90;;;;;;4931238;28;20085;-76
2022/01/09 05:03:13;;;;;;;33.72;3.30;;;5.60;99.90;;;;;;4946230;28;20339;-76
2022/01/09 05:05:40;;;;;;;28.02;2.55;;;5.50;99.90;;;;;;4946717;28;20059;-76
2022/01/09 05:08:07;;;;;;;23.48;3.15;;;5.50;99.90;;;;;;4951916;28;20038;-74
2022/01/09 05:10:33;;;;;;;21.67;1.95;;;5.50;99.90;;;;;;4948076;28;20032;-74
2022/01/09 05:12:59;;;;;;;28.95;3.80;;;5.50;99.90;;;;;;4931474;28;20042;-74
2022/01/09 05:15:26;;;;;;;29.10;2.50;;;5.50;99.90;;;;;;4952148;28;20031;-74
2022/01/09 05:17:57;;;;;;;18.48;2.28;;;5.50;99.90;;;;;;4950932;28;20035;-74
2022/01/09 05:20:24;;;;;;;26.92;3.72;;;5.50;99.90;;;;;;4945151;28;20045;-74
2022/01/09 05:22:50;;;;;;;23.83;2.53;;;5.50;99.90;;;;;;4947760;28;20030;-74
2022/01/09 05:25:17;;;;;;;18.40;1.85;;;5.50;99.90;;;;;;4949366;28;20032;-74
2022/01/09 05:27:43;;;;;;;20.13;2.83;;;5.50;99.90;;;;;;4948321;28;20031;-74
2022/01/09 05:30:10;;;;;;;28.10;3.30;;;5.50;99.90;;;;;;4946612;28;20036;-73
2022/01/09 05:32:36;;;;;;;25.88;2.90;;;5.50;99.90;;;;;;4948337;28;20030;-74
2022/01/09 05:35:03;;;;;;;22.43;2.10;;;5.40;99.90;;;;;;4950140;28;20019;-74
2022/01/09 05:37:30;;;;;;;27.73;2.88;;;5.40;99.90;;;;;;4951801;28;20035;-74
2022/01/09 05:39:56;;;;;;;19.88;2.78;;;5.40;99.90;;;;;;4947305;28;20030;-74
2022/01/09 05:42:23;;;;;;;24.63;2.90;;;5.40;99.90;;;;;;4945082;28;20035;-74
2022/01/09 05:44:49;;;;;;;20.92;2.55;;;5.40;99.90;;;;;;4948375;28;20042;-74
2022/01/09 05:47:16;;;;;;;25.95;1.98;;;5.40;99.90;;;;;;4953434;28;20487;-74
2022/01/09 05:49:42;;;;;;;21.27;2.30;;;5.40;99.90;;;;;;4949998;28;20027;-74
2022/01/09 05:52:09;;;;;;;20.08;2.00;;;5.40;99.90;;;;;;4944963;28;20031;-74
2022/01/09 05:54:35;;;;;;;22.55;2.58;;;5.30;99.90;;;;;;4934758;28;20688;-74
2022/01/09 05:57:02;;;;;;;21.58;2.65;;;5.30;99.90;;;;;;4947901;28;20027;-74
2022/01/09 05:59:28;;;;;;;19.65;1.58;;;5.30;99.90;;;;;;4952185;28;20039;-74
2022/01/09 06:01:56;;;;;;;13.30;1.42;;;5.30;99.90;;;;;;4944700;28;20031;-74
2022/01/09 06:04:24;;;;;;;18.80;1.65;;;5.30;99.90;;;;;;4931339;28;20054;-74
2022/01/09 06:06:50;;;;;;;28.58;2.58;;;5.30;99.90;;;;;;4952350;28;20035;-74
2022/01/09 06:09:16;;;;;;;26.98;3.17;;;5.20;99.90;;;;;;4948674;28;20030;-74
2022/01/09 06:11:43;;;;;;;20.25;1.65;;;5.20;99.90;;;;;;4929137;28;20031;-74
2022/01/09 06:14:09;;;;;;;25.83;2.15;;;5.20;99.90;;;;;;4930778;28;20035;-73
2022/01/09 06:16:36;;;;;;;16.08;1.33;;;5.20;99.90;;;;;;4930986;28;20051;-74
2022/01/09 06:19:02;;;;;;;19.17;2.03;;;5.20;99.90;;;;;;4947315;28;20062;-74
2022/01/09 06:21:28;;;;;;;23.20;2.08;;;5.20;99.90;;;;;;4929688;28;20505;-74
2022/01/09 06:23:55;;;;;;;23.05;2.90;;;5.20;99.90;;;;;;4944315;28;20033;-74
2022/01/09 06:26:22;;;;;;;18.77;1.85;;;5.20;99.90;;;;;;4949600;28;20038;-74
2022/01/09 06:28:48;;;;;;;21.70;2.10;;;5.20;99.90;;;;;;4950583;28;20042;-74
2022/01/09 06:31:15;;;;;;;22.38;2.30;;;5.20;99.90;;;;;;4946747;28;20031;-74
2022/01/09 06:33:41;;;;;;;22.52;1.88;;;5.20;99.90;;;;;;4929189;28;20030;-74
2022/01/09 06:36:08;;;;;;;21.10;2.05;;;5.20;99.90;;;;;;4949212;28;20035;-74
2022/01/09 06:38:37;;;;;;;12.80;1.77;;;5.20;99.90;;;;;;4947986;28;20042;-74
2022/01/09 06:41:04;;;;;;;18.05;1.90;;;5.20;99.90;;;;;;4945174;28;20030;-74
2022/01/09 06:43:30;;;;;;;16.75;2.05;;;5.30;99.90;;;;;;4945498;28;20027;-74
2022/01/09 06:45:56;;;;;;;17.27;1.95;;;5.20;99.90;;;;;;4950557;28;20035;-74
2022/01/09 06:48:23;;;;;;;22.33;2.70;;;5.30;99.90;;;;;;4951178;28;20476;-74
2022/01/09 06:50:49;;;;;;;20.75;2.78;;;5.20;99.90;;;;;;4947666;28;20020;-74
2022/01/09 06:53:15;;;;;;;13.82;1.50;;;5.30;99.90;;;;;;4944443;28;20042;-73
2022/01/09 06:55:43;;;;;;;14.15;1.95;;;5.20;99.90;;;;;;4946159;28;20031;-76
2022/01/09 06:58:10;;;;;;;19.35;2.10;;;5.10;99.90;;;;;;4948179;28;20045;-76
2022/01/09 07:00:36;;;;;;;18.35;1.52;;;5.00;99.90;;;;;;4946572;28;20035;-76
2022/01/09 07:03:02;;;;;;;14.77;1.63;;;5.00;99.90;;;;;;4944429;28;20027;-76
2022/01/09 07:05:29;;;;;;;16.88;2.05;;;4.90;99.90;;;;;;4950832;28;20066;-76
2022/01/09 07:07:55;;;;;;;17.60;1.73;;;4.90;99.90;;;;;;4948894;28;20038;-76
2022/01/09 07:10:22;;;;;;;23.60;2.13;;;4.90;99.90;;;;;;4947793;28;20470;-76
2022/01/09 07:12:48;;;;;;;22.08;1.85;;;4.90;99.90;;;;;;4945681;28;20038;-76
2022/01/09 07:15:14;;;;;;;17.95;2.30;;;4.90;99.90;;;;;;4950960;28;20386;-76
2022/01/09 07:17:41;;;;;;;15.40;1.40;;;4.90;99.90;;;;;;4949128;28;20497;-76
2022/01/09 07:20:09;;;;;;;19.48;1.50;;;4.90;99.90;;;;;;4945698;28;20175;-76
2022/01/09 07:22:36;;;;;;;14.38;1.80;;;4.80;99.90;;;;;;4945842;28;20035;-76
2022/01/09 07:25:05;;;;;;;13.60;1.42;;;4.70;99.90;;;;;;4948558;28;20034;-76
2022/01/09 07:27:33;;;;;;;12.45;1.30;;;4.70;99.90;;;;;;4948612;28;20023;-76
2022/01/09 07:30:00;;;;;;;13.05;1.33;;;4.70;99.90;;;;;;4950503;28;20031;-77
2022/01/09 07:32:28;;;;;;;12.98;1.40;;;4.70;99.90;;;;;;4942999;28;20027;-74
2022/01/09 07:34:57;;;;;;;13.43;1.52;;;4.70;99.90;;;;;;4949740;28;20044;-74
2022/01/09 07:37:25;;;;;;;15.02;1.40;;;4.70;99.90;;;;;;4933691;28;20022;-74
2022/01/09 07:39:52;;;;;;;13.27;1.88;;;4.80;99.90;;;;;;4950203;28;20050;-74
2022/01/09 07:42:18;;;;;;;10.65;1.17;;;4.80;99.90;;;;;;4942288;28;20474;-73
2022/01/09 07:44:44;;;;;;;13.80;1.48;;;4.90;99.90;;;;;;4947275;28;20034;-75
2022/01/09 07:47:11;;;;;;;7.53;1.23;;;4.90;99.90;;;;;;4932221;28;21150;-75
2022/01/09 07:49:37;;;;;;;10.57;1.25;;;4.90;99.90;;;;;;4948909;28;20038;-75
2022/01/09 07:52:04;;;;;;;9.32;1.00;;;4.90;99.90;;;;;;4942335;28;20038;-74
2022/01/09 07:54:30;;;;;;;12.50;1.13;;;4.90;99.90;;;;;;4963123;28;20023;-74
2022/01/09 07:56:57;;;;;;;10.85;1.30;;;4.90;99.90;;;;;;4948051;28;20038;-74
2022/01/09 07:59:23;;;;;;;12.10;1.75;;;4.80;99.90;;;;;;4949810;28;20031;-73
2022/01/09 08:01:50;;;;;;;14.93;4.80;;;4.80;99.90;;;;;;4946097;28;20051;-73
2022/01/09 08:04:17;;;;;;;22.27;4.55;;;4.70;99.90;;;;;;4947013;28;20387;-73
2022/01/09 08:06:43;;;;;;;21.92;4.40;;;4.70;99.90;;;;;;4951548;28;20039;-73
2022/01/09 08:09:10;;;;;;;16.27;3.47;;;4.70;99.90;;;;;;4952837;28;20026;-75
2022/01/09 08:11:36;;;;;;;13.40;1.90;;;4.70;99.90;;;;;;4951385;28;20025;-75
2022/01/09 08:14:03;;;;;;;12.52;1.55;;;4.70;99.90;;;;;;4932623;28;20402;-75
2022/01/09 08:16:29;;;;;;;12.88;1.23;;;4.60;99.90;;;;;;4955884;28;20029;-75
2022/01/09 08:18:55;;;;;;;18.42;1.95;;;4.70;99.90;;;;;;4948366;28;20042;-75
2022/01/09 08:21:22;;;;;;;12.10;1.30;;;4.70;99.90;;;;;;4949954;28;20035;-75
2022/01/09 08:23:49;;;;;;;12.25;1.50;;;4.70;99.90;;;;;;4914612;28;20042;-76
2022/01/09 08:26:17;;;;;;;16.90;1.58;;;4.70;99.90;;;;;;4952519;28;20169;-75
2022/01/09 08:28:47;;;;;;;10.07;1.08;;;4.70;99.90;;;;;;4955614;28;20031;-76
2022/01/09 08:31:18;;;;;;;15.15;1.50;;;4.70;99.90;;;;;;4950720;28;20381;-75
2022/01/09 08:33:45;;;;;;;15.45;1.27;;;4.60;99.90;;;;;;4952467;28;20030;-75
2022/01/09 08:36:12;;;;;;;13.38;1.42;;;4.60;99.90;;;;;;4951090;28;20035;-75
2022/01/09 08:38:39;;;;;;;9.75;1.02;;;4.60;99.90;;;;;;4949695;28;20065;-75
2022/01/09 08:41:06;;;;;;;8.25;0.80;;;4.70;99.90;;;;;;4947526;28;20355;-75
2022/01/09 08:43:35;;;;;;;10.43;0.98;;;4.70;99.90;;;;;;4948089;28;20030;-73
2022/01/09 08:46:01;;;;;;;11.77;1.17;;;4.60;99.90;;;;;;4950850;28;20043;-73
2022/01/09 08:48:28;;;;;;;11.63;1.27;;;4.60;99.90;;;;;;4936287;28;20719;-73
2022/01/09 08:50:54;;;;;;;15.45;1.20;;;4.50;99.90;;;;;;4931882;28;20930;-73
2022/01/09 08:53:20;;;;;;;8.68;1.10;;;4.50;99.90;;;;;;4948441;28;20007;-74
2022/01/09 08:55:47;;;;;;;10.80;1.00;;;4.40;99.90;;;;;;4933740;28;20034;-73
2022/01/09 08:58:13;;;;;;;7.88;1.05;;;4.40;99.90;;;;;;4934407;28;20038;-74
2022/01/09 09:00:40;;;;;;;8.35;1.02;;;4.40;99.90;;;;;;4932774;28;20046;-74
2022/01/09 09:03:06;;;;;;;11.80;0.85;;;4.40;99.90;;;;;;4947940;28;20371;-73
2022/01/09 09:05:32;;;;;;;12.48;1.10;;;4.40;99.90;;;;;;4951876;28;20070;-75
2022/01/09 09:07:59;;;;;;;16.70;1.55;;;4.40;99.90;;;;;;4936102;28;20035;-80
2022/01/09 09:10:26;;;;;;;10.48;1.30;;;4.50;99.90;;;;;;4948674;28;21603;-77
2022/01/09 09:12:54;;;;;;;11.90;0.80;;;4.50;99.90;;;;;;4948557;28;20033;-76
2022/01/09 09:15:22;;;;;;;7.93;1.10;;;4.50;99.90;;;;;;4935169;28;20036;-79
2022/01/09 09:17:48;;;;;;;10.20;1.10;;;4.60;99.90;;;;;;4934571;28;20828;-79
2022/01/09 09:20:15;;;;;;;13.88;1.50;;;4.60;99.90;;;;;;4932925;28;20108;-74
2022/01/09 09:22:41;;;;;;;16.52;3.35;;;4.60;99.90;;;;;;4945908;28;20032;-74
2022/01/09 09:25:08;;;;;;;12.20;2.20;;;4.70;99.90;;;;;;4927214;28;20035;-74
2022/01/09 09:27:35;;;;;;;9.63;1.80;;;4.70;99.90;;;;;;5208500;23;20056;-74
2022/01/09 09:30:05;;;;;;;13.20;1.67;;;4.90;99.90;;;;;;4927072;28;20395;-73
2022/01/09 09:32:31;;;;;;;15.05;1.17;;;5.00;99.90;;;;;;4941180;28;20042;-74
2022/01/09 09:34:58;;;;;;;11.38;1.60;;;5.20;99.90;;;;;;4961882;28;20031;-74
2022/01/09 09:37:26;;;;;;;9.32;1.55;;;5.30;99.90;;;;;;4930301;28;20035;-77
2022/01/09 09:39:52;;;;;;;13.05;1.90;;;5.40;99.90;;;;;;4962178;28;20027;-77
2022/01/09 09:42:20;;;;;;;15.20;2.25;;;5.40;99.90;;;;;;4943283;28;20020;-78
2022/01/09 09:44:46;;;;;;;9.65;1.60;;;5.40;99.90;;;;;;4951497;28;20038;-80
2022/01/09 09:47:16;;;;;;;7.25;0.88;;;5.40;99.90;;;;;;4966071;28;20043;-74
2022/01/09 09:49:43;;;;;;;6.57;1.20;;;5.40;99.90;;;;;;4952418;28;20029;-74
2022/01/09 09:52:09;;;;;;;9.63;1.90;;;5.40;99.90;;;;;;4962188;28;20052;-74
2022/01/09 09:54:36;;;;;;;10.48;1.23;;;5.40;99.90;;;;;;4952320;28;20038;-74
2022/01/09 09:57:02;;;;;;;11.20;1.00;;;5.40;99.90;;;;;;4951797;28;20031;-75
2022/01/09 09:59:36;;;;;;;11.90;1.08;;;5.40;99.90;;;;;;4952545;28;20043;-74
2022/01/09 10:02:17;;;;;;;12.38;1.27;;;5.40;99.90;;;;;;4963491;28;20030;-74
2022/01/09 10:05:02;;;;;;;6.72;1.33;;;5.30;99.90;;;;;;4951729;28;20043;-75
2022/01/09 10:07:29;;;;;;;8.02;1.02;;;5.30;99.90;;;;;;4968196;28;20042;-75
2022/01/09 10:10:01;;;;;;;9.95;1.35;;;5.20;99.90;;;;;;4952863;28;20023;-75
2022/01/09 10:12:30;;;;;;;6.43;0.70;;;5.50;99.90;;;;;;4948180;28;20031;-75
2022/01/09 10:14:58;;;;;;;6.10;0.70;;;5.80;99.90;;;;;;4951635;28;20026;-75
2022/01/09 10:17:26;;;;;;;12.63;1.25;;;6.10;99.90;;;;;;4951953;28;20019;-75
2022/01/09 10:19:57;;;;;;;10.10;0.82;;;6.50;99.90;;;;;;4949480;28;20015;-75
2022/01/09 10:22:39;;;;;;;11.07;1.33;;;6.80;99.90;;;;;;4944744;28;20037;-75
2022/01/09 10:25:24;;;;;;;5.00;0.93;;;6.90;99.90;;;;;;4964547;28;20024;-78
2022/01/09 10:27:55;;;;;;;9.48;1.17;;;6.90;99.90;;;;;;4949963;28;21273;-74
2022/01/09 10:30:24;;;;;;;5.65;1.30;;;6.90;99.90;;;;;;4946471;28;20422;-74
2022/01/09 10:32:58;;;;;;;8.15;1.75;;;6.70;99.90;;;;;;4962413;28;20019;-75
2022/01/09 10:35:26;;;;;;;7.78;1.08;;;6.60;99.90;;;;;;4952156;28;20031;-75
2022/01/09 10:38:06;;;;;;;14.68;1.45;;;6.50;99.90;;;;;;4964691;28;20031;-74
2022/01/09 10:40:36;;;;;;;7.43;1.58;;;6.50;99.90;;;;;;4932728;28;20046;-73
2022/01/09 10:43:09;;;;;;;13.38;1.40;;;6.40;99.90;;;;;;4945786;28;20038;-75
2022/01/09 10:45:42;;;;;;;11.55;1.40;;;6.30;99.90;;;;;;4950896;28;20482;-74
2022/01/09 10:48:13;;;;;;;8.93;1.20;;;6.30;99.90;;;;;;4952277;28;20026;-74
2022/01/09 10:50:42;;;;;;;9.82;1.48;;;6.30;99.90;;;;;;4947954;28;20026;-76
2022/01/09 10:53:15;;;;;;;12.77;1.52;;;6.30;99.90;;;;;;4931976;28;20358;-75
2022/01/09 10:55:43;;;;;;;14.80;2.15;;;6.30;99.90;;;;;;4950713;28;20031;-75
2022/01/09 10:58:18;;;;;;;7.65;0.82;;;6.30;99.90;;;;;;4953193;28;20026;-74
2022/01/09 11:00:46;;;;;;;7.57;1.48;;;6.20;99.90;;;;;;4951710;28;20022;-74
2022/01/09 11:03:13;;;;;;;11.40;1.45;;;6.20;99.90;;;;;;4946470;28;20034;-74
2022/01/09 11:05:40;;;;;;;11.85;1.15;;;6.20;99.90;;;;;;4949381;28;20374;-74
2022/01/09 11:08:07;;;;;;;14.20;1.20;;;6.20;99.90;;;;;;4943519;28;20535;-75
2022/01/09 11:10:35;;;;;;;14.50;1.70;;;6.20;99.90;;;;;;4946632;28;20594;-74
2022/01/09 11:13:02;;;;;;;8.43;1.10;;;6.20;99.90;;;;;;4945380;28;20019;-74
2022/01/09 11:15:29;;;;;;;14.70;1.55;;;6.20;99.90;;;;;;4950835;28;20027;-74
2022/01/09 11:17:59;;;;;;;13.90;1.80;;;6.30;99.90;;;;;;4951325;28;20066;-75
2022/01/09 11:20:25;;;;;;;13.20;1.65;;;6.40;99.90;;;;;;4964034;28;20030;-74
2022/01/09 11:22:55;;;;;;;11.93;1.63;;;6.60;99.90;;;;;;4942238;28;20023;-74
2022/01/09 11:25:40;;;;;;;12.30;1.60;;;6.70;99.90;;;;;;4966775;28;20027;-74
2022/01/09 11:28:27;;;;;;;10.50;1.77;;;6.80;99.90;;;;;;4952667;28;20047;-74
2022/01/09 11:30:59;;;;;;;9.90;1.50;;;6.80;99.90;;;;;;4951259;28;20370;-74
2022/01/09 11:33:46;;;;;;;11.65;1.88;;;6.80;99.90;;;;;;4947315;28;20042;-74
2022/01/09 11:36:22;;;;;;;20.25;4.38;;;6.80;99.90;;;;;;4950583;28;20038;-74
2022/01/09 11:39:16;;;;;;;12.93;3.45;;;6.80;99.90;;;;;;4951592;28;20022;-74
2022/01/09 11:41:45;;;;;;;12.27;2.15;;;6.80;99.90;;;;;;4954350;28;20091;-74
2022/01/09 11:44:14;;;;;;;13.10;1.77;;;6.80;99.90;;;;;;4944616;28;20370;-74
2022/01/09 11:47:05;;;;;;;15.57;1.85;;;6.70;99.90;;;;;;4951514;28;20062;-74
2022/01/09 11:49:55;;;;;;;9.45;1.13;;;6.70;99.90;;;;;;4970694;28;20023;-74
2022/01/09 11:52:24;;;;;;;13.98;1.33;;;6.70;99.90;;;;;;4967767;28;20027;-75
2022/01/09 11:54:54;;;;;;;9.90;1.30;;;6.60;99.90;;;;;;4952755;28;20038;-75
2022/01/09 11:57:33;;;;;;;10.07;1.58;;;6.50;99.90;;;;;;4953827;28;20027;-77
2022/01/09 11:59:59;;;;;;;13.10;1.40;;;6.50;99.90;;;;;;4957178;28;20362;-77
2022/01/09 12:02:29;;;;;;;8.45;0.88;;;6.40;99.90;;;;;;4952210;28;20018;-77
2022/01/09 12:05:07;;;;;;;8.23;0.90;;;6.40;99.90;;;;;;4956436;28;20389;-75
2022/01/09 12:07:36;;;;;;;10.10;1.67;;;6.40;99.90;;;;;;4958683;28;20045;-75
2022/01/09 12:10:25;;;;;;;12.75;1.55;;;6.30;99.90;;;;;;4970822;28;20016;-76
2022/01/09 12:12:51;;;;;;;7.63;1.35;;;6.40;99.90;;;;;;4951547;28;20023;-76
2022/01/09 12:15:34;;;;;;;9.80;1.00;;;6.40;99.90;;;;;;4973286;28;20042;-76
2022/01/09 12:18:03;;;;;;;8.35;0.88;;;6.40;99.90;;;;;;4955666;28;20031;-77
2022/01/09 12:20:37;;;;;;;9.52;1.08;;;6.40;99.90;;;;;;4954021;28;20035;-78
2022/01/09 12:23:06;;;;;;;6.35;0.68;;;6.40;99.90;;;;;;4968413;28;20414;-76
2022/01/09 12:25:36;;;;;;;11.40;0.80;;;6.30;99.90;;;;;;4955967;28;20035;-76
2022/01/09 12:28:09;;;;;;;10.82;1.20;;;6.30;99.90;;;;;;4940598;28;22317;-74
2022/01/09 12:30:40;;;;;;;9.27;1.10;;;6.50;99.90;;;;;;4956835;28;20031;-74
2022/01/09 12:33:25;;;;;;;9.75;1.02;;;6.60;99.90;;;;;;4968200;28;20026;-74
2022/01/09 12:36:04;;;;;;;14.48;1.25;;;6.80;99.90;;;;;;4953042;28;20023;-75
2022/01/09 12:38:35;;;;;;;16.73;3.00;;;6.90;99.90;;;;;;4956768;28;20030;-75
2022/01/09 12:41:09;;;;;;;13.40;2.13;;;6.90;99.90;;;;;;4955127;28;20030;-75
2022/01/09 12:43:37;;;;;;;13.60;1.70;;;6.90;99.90;;;;;;4968473;28;20754;-73
2022/01/09 12:46:12;;;;;;;9.35;1.08;;;6.90;99.90;;;;;;4955663;28;20042;-73
2022/01/09 12:48:40;;;;;;;15.55;1.58;;;6.90;99.90;;;;;;4957221;28;20049;-73
2022/01/09 12:51:13;;;;;;;15.27;1.48;;;6.80;99.90;;;;;;4955518;28;20474;-74
2022/01/09 12:54:00;;;;;;;13.48;1.60;;;6.80;99.90;;;;;;4951266;28;20019;-74
2022/01/09 12:56:32;;;;;;;12.10;2.13;;;6.90;99.90;;;;;;4953721;28;20027;-73
2022/01/09 12:59:05;;;;;;;15.68;1.45;;;7.10;99.90;;;;;;4957168;28;20027;-73